sensor_id;sensor_type;location;lat;lon;timestamp;pressure;altitude;pressure_sealevel;temperature;humidity
16793;BME280;8513;42.662;23.350;2023-03-05T00:01:10;94453.59;;;8.06;61.95
16793;BME280;8513;42.662;23.350;2023-03-05T00:03:36;94444.63;;;7.90;62.39
16793;BME280;8513;42.662;23.350;2023-03-05T00:06:02;94442.31;;;8.05;61.78
16793;BME280;8513;42.662;23.350;2023-03-05T00:08:28;94435.97;;;8.08;61.57
16793;BME280;8513;42.662;23.350;2023-03-05T00:11:01;94435.28;;;8.06;61.63
16793;BME280;8513;42.662;23.350;2023-03-05T00:13:28;94441.25;;;8.16;61.15
16793;BME280;8513;42.662;23.350;2023-03-05T00:15:53;94436.34;;;8.13;60.95
16793;BME280;8513;42.662;23.350;2023-03-05T00:18:19;94446.88;;;8.21;60.81
16793;BME280;8513;42.662;23.350;2023-03-05T00:20:45;94435.41;;;8.22;60.43
16793;BME280;8513;42.662;23.350;2023-03-05T00:23:11;94431.75;;;8.15;60.29
16793;BME280;8513;42.662;23.350;2023-03-05T00:25:37;94428.22;;;8.24;59.53
16793;BME280;8513;42.662;23.350;2023-03-05T00:28:03;94425.38;;;8.17;59.46
16793;BME280;8513;42.662;23.350;2023-03-05T00:30:30;94425.19;;;8.11;60.17
16793;BME280;8513;42.662;23.350;2023-03-05T00:32:56;94423.94;;;8.23;60.18
16793;BME280;8513;42.662;23.350;2023-03-05T00:35:21;94427.09;;;8.27;60.00
16793;BME280;8513;42.662;23.350;2023-03-05T00:37:47;94425.09;;;8.21;59.70
16793;BME280;8513;42.662;23.350;2023-03-05T00:40:12;94421.88;;;8.09;60.08
16793;BME280;8513;42.662;23.350;2023-03-05T00:42:38;94420.56;;;8.05;60.30
16793;BME280;8513;42.662;23.350;2023-03-05T00:45:04;94416.03;;;8.15;59.79
16793;BME280;8513;42.662;23.350;2023-03-05T00:47:31;94411.63;;;8.15;60.13
16793;BME280;8513;42.662;23.350;2023-03-05T00:49:56;94406.16;;;8.09;59.34
16793;BME280;8513;42.662;23.350;2023-03-05T00:52:22;94402.88;;;8.07;59.51
16793;BME280;8513;42.662;23.350;2023-03-05T00:54:47;94402.00;;;7.98;59.80
16793;BME280;8513;42.662;23.350;2023-03-05T00:57:13;94404.53;;;8.08;59.37
16793;BME280;8513;42.662;23.350;2023-03-05T00:59:38;94403.41;;;8.10;58.86
16793;BME280;8513;42.662;23.350;2023-03-05T01:02:04;94408.28;;;8.05;58.93
16793;BME280;8513;42.662;23.350;2023-03-05T01:04:30;94397.56;;;7.99;59.05
16793;BME280;8513;42.662;23.350;2023-03-05T01:06:55;94400.13;;;8.08;58.82
16793;BME280;8513;42.662;23.350;2023-03-05T01:09:21;94391.81;;;8.13;58.24
16793;BME280;8513;42.662;23.350;2023-03-05T01:11:49;94392.09;;;8.10;58.78
16793;BME280;8513;42.662;23.350;2023-03-05T01:14:15;94390.16;;;8.12;58.41
16793;BME280;8513;42.662;23.350;2023-03-05T01:16:40;94382.97;;;8.14;57.94
16793;BME280;8513;42.662;23.350;2023-03-05T01:19:06;94388.75;;;8.00;58.21
16793;BME280;8513;42.662;23.350;2023-03-05T01:21:31;94382.84;;;7.98;57.53
16793;BME280;8513;42.662;23.350;2023-03-05T01:23:58;94390.78;;;8.06;58.04
16793;BME280;8513;42.662;23.350;2023-03-05T01:26:23;94380.28;;;8.06;57.80
16793;BME280;8513;42.662;23.350;2023-03-05T01:28:49;94383.59;;;8.08;57.29
16793;BME280;8513;42.662;23.350;2023-03-05T01:31:14;94388.41;;;7.94;57.24
16793;BME280;8513;42.662;23.350;2023-03-05T01:33:40;94379.19;;;7.90;57.44
16793;BME280;8513;42.662;23.350;2023-03-05T01:36:10;94372.53;;;7.96;57.03
16793;BME280;8513;42.662;23.350;2023-03-05T01:38:37;94372.75;;;8.03;57.04
16793;BME280;8513;42.662;23.350;2023-03-05T01:41:03;94377.22;;;8.10;56.92
16793;BME280;8513;42.662;23.350;2023-03-05T01:43:29;94380.72;;;8.19;56.53
16793;BME280;8513;42.662;23.350;2023-03-05T01:46:36;94371.06;;;8.20;56.71
16793;BME280;8513;42.662;23.350;2023-03-05T01:51:31;94377.06;;;8.12;55.54
16793;BME280;8513;42.662;23.350;2023-03-05T01:54:00;94378.72;;;8.13;55.57
16793;BME280;8513;42.662;23.350;2023-03-05T01:56:27;94370.63;;;8.06;55.60
16793;BME280;8513;42.662;23.350;2023-03-05T01:58:55;94376.81;;;7.97;55.64
16793;BME280;8513;42.662;23.350;2023-03-05T02:01:31;94379.84;;;7.92;55.55
16793;BME280;8513;42.662;23.350;2023-03-05T02:03:58;94366.09;;;7.90;54.68
16793;BME280;8513;42.662;23.350;2023-03-05T02:06:24;94372.25;;;7.63;55.49
16793;BME280;8513;42.662;23.350;2023-03-05T02:08:50;94374.25;;;7.69;55.66
16793;BME280;8513;42.662;23.350;2023-03-05T02:11:15;94367.31;;;7.78;55.49
16793;BME280;8513;42.662;23.350;2023-03-05T02:13:41;94371.19;;;7.92;54.87
16793;BME280;8513;42.662;23.350;2023-03-05T02:16:07;94376.56;;;7.90;54.75
16793;BME280;8513;42.662;23.350;2023-03-05T02:18:32;94380.06;;;7.99;54.68
16793;BME280;8513;42.662;23.350;2023-03-05T02:21:06;94369.19;;;7.86;54.19
16793;BME280;8513;42.662;23.350;2023-03-05T02:23:34;94372.31;;;7.71;54.50
16793;BME280;8513;42.662;23.350;2023-03-05T02:26:05;94375.91;;;7.70;54.83
16793;BME280;8513;42.662;23.350;2023-03-05T02:28:37;94372.69;;;7.77;54.41
16793;BME280;8513;42.662;23.350;2023-03-05T02:31:13;94372.25;;;7.81;54.69
16793;BME280;8513;42.662;23.350;2023-03-05T02:33:39;94382.09;;;7.87;54.55
16793;BME280;8513;42.662;23.350;2023-03-05T02:36:05;94375.16;;;7.78;54.35
16793;BME280;8513;42.662;23.350;2023-03-05T02:38:30;94371.88;;;7.76;54.38
16793;BME280;8513;42.662;23.350;2023-03-05T02:40:56;94371.06;;;7.76;54.40
16793;BME280;8513;42.662;23.350;2023-03-05T02:43:21;94374.56;;;7.84;54.42
16793;BME280;8513;42.662;23.350;2023-03-05T02:45:47;94383.97;;;7.95;54.24
16793;BME280;8513;42.662;23.350;2023-03-05T02:48:12;94382.94;;;7.70;54.81
16793;BME280;8513;42.662;23.350;2023-03-05T02:50:38;94379.97;;;7.65;55.07
16793;BME280;8513;42.662;23.350;2023-03-05T02:53:04;94388.75;;;7.64;54.79
16793;BME280;8513;42.662;23.350;2023-03-05T02:55:30;94382.09;;;7.69;55.31
16793;BME280;8513;42.662;23.350;2023-03-05T02:57:56;94385.56;;;7.70;55.81
16793;BME280;8513;42.662;23.350;2023-03-05T03:00:21;94380.91;;;7.64;55.80
16793;BME280;8513;42.662;23.350;2023-03-05T03:02:47;94384.13;;;7.58;55.89
16793;BME280;8513;42.662;23.350;2023-03-05T03:05:12;94387.06;;;7.55;56.06
16793;BME280;8513;42.662;23.350;2023-03-05T03:07:38;94376.50;;;7.64;55.49
16793;BME280;8513;42.662;23.350;2023-03-05T03:10:04;94380.06;;;7.45;56.20
16793;BME280;8513;42.662;23.350;2023-03-05T03:12:30;94372.81;;;7.39;56.38
16793;BME280;8513;42.662;23.350;2023-03-05T03:14:55;94384.88;;;7.50;56.29
16793;BME280;8513;42.662;23.350;2023-03-05T03:17:20;94380.63;;;7.49;56.14
16793;BME280;8513;42.662;23.350;2023-03-05T03:19:46;94374.84;;;7.45;56.42
16793;BME280;8513;42.662;23.350;2023-03-05T03:22:14;94388.81;;;7.36;56.66
16793;BME280;8513;42.662;23.350;2023-03-05T03:24:41;94378.78;;;7.32;56.67
16793;BME280;8513;42.662;23.350;2023-03-05T03:27:07;94380.69;;;7.39;56.88
16793;BME280;8513;42.662;23.350;2023-03-05T03:29:32;94382.78;;;7.36;56.62
16793;BME280;8513;42.662;23.350;2023-03-05T03:31:58;94382.81;;;7.26;56.65
16793;BME280;8513;42.662;23.350;2023-03-05T03:34:24;94392.69;;;7.32;56.35
16793;BME280;8513;42.662;23.350;2023-03-05T03:36:50;94387.06;;;7.27;56.54
16793;BME280;8513;42.662;23.350;2023-03-05T03:39:18;94371.25;;;7.28;56.17
16793;BME280;8513;42.662;23.350;2023-03-05T03:41:45;94385.66;;;7.15;56.71
16793;BME280;8513;42.662;23.350;2023-03-05T03:44:11;94389.38;;;6.84;57.41
16793;BME280;8513;42.662;23.350;2023-03-05T03:46:38;94378.44;;;6.99;56.75
16793;BME280;8513;42.662;23.350;2023-03-05T03:49:05;94375.53;;;7.02;56.74
16793;BME280;8513;42.662;23.350;2023-03-05T03:51:31;94381.66;;;7.11;56.81
16793;BME280;8513;42.662;23.350;2023-03-05T03:53:58;94390.41;;;7.01;56.84
16793;BME280;8513;42.662;23.350;2023-03-05T03:56:23;94384.28;;;7.11;56.48
16793;BME280;8513;42.662;23.350;2023-03-05T03:58:50;94382.84;;;6.98;56.70
16793;BME280;8513;42.662;23.350;2023-03-05T04:01:17;94382.22;;;7.14;56.45
16793;BME280;8513;42.662;23.350;2023-03-05T04:03:42;94381.19;;;6.97;56.31
16793;BME280;8513;42.662;23.350;2023-03-05T04:06:08;94393.53;;;6.77;57.51
16793;BME280;8513;42.662;23.350;2023-03-05T04:08:34;94395.91;;;6.98;57.03
16793;BME280;8513;42.662;23.350;2023-03-05T04:11:00;94395.66;;;6.92;57.05
16793;BME280;8513;42.662;23.350;2023-03-05T04:13:26;94396.69;;;7.09;56.95
16793;BME280;8513;42.662;23.350;2023-03-05T04:15:52;94397.88;;;6.87;57.60
16793;BME280;8513;42.662;23.350;2023-03-05T04:18:17;94399.00;;;6.84;57.38
16793;BME280;8513;42.662;23.350;2023-03-05T04:20:43;94394.31;;;6.88;57.74
16793;BME280;8513;42.662;23.350;2023-03-05T04:23:08;94398.69;;;6.59;58.35
16793;BME280;8513;42.662;23.350;2023-03-05T04:25:34;94401.38;;;6.77;57.70
16793;BME280;8513;42.662;23.350;2023-03-05T04:27:59;94395.31;;;6.77;57.36
16793;BME280;8513;42.662;23.350;2023-03-05T04:30:25;94404.28;;;6.74;57.61
16793;BME280;8513;42.662;23.350;2023-03-05T04:32:50;94390.03;;;6.59;56.94
16793;BME280;8513;42.662;23.350;2023-03-05T04:35:16;94400.69;;;6.75;56.93
16793;BME280;8513;42.662;23.350;2023-03-05T04:37:41;94389.22;;;6.58;57.38
16793;BME280;8513;42.662;23.350;2023-03-05T04:40:07;94389.78;;;6.52;57.32
16793;BME280;8513;42.662;23.350;2023-03-05T04:42:34;94396.94;;;6.50;57.46
16793;BME280;8513;42.662;23.350;2023-03-05T04:44:59;94389.72;;;6.62;56.97
16793;BME280;8513;42.662;23.350;2023-03-05T04:47:25;94384.16;;;6.47;57.00
16793;BME280;8513;42.662;23.350;2023-03-05T04:49:50;94383.59;;;6.53;57.74
16793;BME280;8513;42.662;23.350;2023-03-05T04:52:16;94380.94;;;6.63;57.43
16793;BME280;8513;42.662;23.350;2023-03-05T04:54:43;94382.31;;;6.57;57.24
16793;BME280;8513;42.662;23.350;2023-03-05T04:57:09;94384.63;;;6.70;56.80
16793;BME280;8513;42.662;23.350;2023-03-05T04:59:35;94380.66;;;6.66;56.91
16793;BME280;8513;42.662;23.350;2023-03-05T05:02:01;94377.16;;;6.48;57.45
16793;BME280;8513;42.662;23.350;2023-03-05T05:04:27;94382.50;;;6.46;57.50
16793;BME280;8513;42.662;23.350;2023-03-05T05:06:55;94392.00;;;6.37;57.71
16793;BME280;8513;42.662;23.350;2023-03-05T05:09:20;94388.09;;;6.61;56.96
16793;BME280;8513;42.662;23.350;2023-03-05T05:11:46;94386.44;;;6.60;57.13
16793;BME280;8513;42.662;23.350;2023-03-05T05:14:11;94392.00;;;6.47;57.58
16793;BME280;8513;42.662;23.350;2023-03-05T05:16:37;94384.88;;;6.39;57.22
16793;BME280;8513;42.662;23.350;2023-03-05T05:19:02;94397.00;;;6.31;57.62
16793;BME280;8513;42.662;23.350;2023-03-05T05:21:28;94395.63;;;6.17;57.38
16793;BME280;8513;42.662;23.350;2023-03-05T05:23:53;94395.25;;;6.49;56.88
16793;BME280;8513;42.662;23.350;2023-03-05T05:26:19;94394.75;;;6.46;56.51
16793;BME280;8513;42.662;23.350;2023-03-05T05:28:44;94394.06;;;6.44;56.55
16793;BME280;8513;42.662;23.350;2023-03-05T05:31:12;94380.56;;;6.48;55.84
16793;BME280;8513;42.662;23.350;2023-03-05T05:33:38;94389.03;;;6.60;55.93
16793;BME280;8513;42.662;23.350;2023-03-05T05:36:06;94389.81;;;6.80;54.81
16793;BME280;8513;42.662;23.350;2023-03-05T05:38:33;94405.16;;;6.55;55.36
16793;BME280;8513;42.662;23.350;2023-03-05T05:41:07;94394.88;;;6.44;55.45
16793;BME280;8513;42.662;23.350;2023-03-05T05:43:33;94403.25;;;6.48;55.30
16793;BME280;8513;42.662;23.350;2023-03-05T05:46:00;94396.25;;;6.38;55.62
16793;BME280;8513;42.662;23.350;2023-03-05T05:48:30;94396.38;;;6.47;55.03
16793;BME280;8513;42.662;23.350;2023-03-05T05:50:56;94398.66;;;6.69;54.35
16793;BME280;8513;42.662;23.350;2023-03-05T05:53:22;94400.84;;;6.74;53.77
16793;BME280;8513;42.662;23.350;2023-03-05T05:55:48;94405.22;;;6.73;54.23
16793;BME280;8513;42.662;23.350;2023-03-05T05:58:13;94408.16;;;6.98;52.95
16793;BME280;8513;42.662;23.350;2023-03-05T06:00:39;94406.19;;;6.82;52.76
16793;BME280;8513;42.662;23.350;2023-03-05T06:03:04;94422.09;;;6.89;53.13
16793;BME280;8513;42.662;23.350;2023-03-05T06:05:30;94428.63;;;7.02;52.62
16793;BME280;8513;42.662;23.350;2023-03-05T06:07:55;94423.41;;;7.02;51.84
16793;BME280;8513;42.662;23.350;2023-03-05T06:10:21;94409.38;;;7.03;51.40
16793;BME280;8513;42.662;23.350;2023-03-05T06:12:46;94417.22;;;7.03;51.64
16793;BME280;8513;42.662;23.350;2023-03-05T06:15:11;94418.47;;;6.99;51.57
16793;BME280;8513;42.662;23.350;2023-03-05T06:17:37;94414.66;;;6.94;51.55
16793;BME280;8513;42.662;23.350;2023-03-05T06:20:04;94418.19;;;7.30;50.42
16793;BME280;8513;42.662;23.350;2023-03-05T06:22:31;94417.88;;;7.33;50.04
16793;BME280;8513;42.662;23.350;2023-03-05T06:24:59;94423.56;;;7.28;50.00
16793;BME280;8513;42.662;23.350;2023-03-05T06:27:25;94425.56;;;7.17;49.78
16793;BME280;8513;42.662;23.350;2023-03-05T06:29:52;94424.16;;;7.22;49.44
16793;BME280;8513;42.662;23.350;2023-03-05T06:32:18;94431.59;;;6.90;50.17
16793;BME280;8513;42.662;23.350;2023-03-05T06:34:43;94420.31;;;7.17;49.47
16793;BME280;8513;42.662;23.350;2023-03-05T06:37:09;94422.59;;;7.02;49.68
16793;BME280;8513;42.662;23.350;2023-03-05T06:39:34;94427.78;;;7.12;48.98
16793;BME280;8513;42.662;23.350;2023-03-05T06:41:59;94424.91;;;7.05;49.06
16793;BME280;8513;42.662;23.350;2023-03-05T06:44:25;94436.72;;;7.09;48.93
16793;BME280;8513;42.662;23.350;2023-03-05T06:46:50;94422.19;;;6.97;48.59
16793;BME280;8513;42.662;23.350;2023-03-05T06:49:16;94419.34;;;7.18;48.19
16793;BME280;8513;42.662;23.350;2023-03-05T06:51:41;94432.28;;;7.19;47.72
16793;BME280;8513;42.662;23.350;2023-03-05T06:54:10;94434.94;;;7.10;47.76
16793;BME280;8513;42.662;23.350;2023-03-05T06:56:38;94435.06;;;7.08;47.99
16793;BME280;8513;42.662;23.350;2023-03-05T06:59:04;94426.97;;;7.11;48.22
16793;BME280;8513;42.662;23.350;2023-03-05T07:01:30;94438.13;;;7.03;48.16
16793;BME280;8513;42.662;23.350;2023-03-05T07:03:56;94432.91;;;7.31;47.35
16793;BME280;8513;42.662;23.350;2023-03-05T07:06:27;94432.00;;;7.40;47.27
16793;BME280;8513;42.662;23.350;2023-03-05T07:08:57;94431.38;;;7.74;45.55
16793;BME280;8513;42.662;23.350;2023-03-05T07:11:25;94442.06;;;7.63;45.73
16793;BME280;8513;42.662;23.350;2023-03-05T07:13:50;94430.13;;;7.78;45.74
16793;BME280;8513;42.662;23.350;2023-03-05T07:16:21;94437.59;;;7.73;46.07
16793;BME280;8513;42.662;23.350;2023-03-05T07:18:48;94434.59;;;7.68;46.06
16793;BME280;8513;42.662;23.350;2023-03-05T07:21:19;94430.72;;;7.72;45.37
16793;BME280;8513;42.662;23.350;2023-03-05T07:23:45;94442.44;;;7.50;46.24
16793;BME280;8513;42.662;23.350;2023-03-05T07:26:35;94445.75;;;7.88;45.84
16793;BME280;8513;42.662;23.350;2023-03-05T07:29:01;94435.94;;;7.72;45.71
16793;BME280;8513;42.662;23.350;2023-03-05T07:31:27;94440.31;;;7.81;45.43
16793;BME280;8513;42.662;23.350;2023-03-05T07:33:55;94443.41;;;7.67;45.78
16793;BME280;8513;42.662;23.350;2023-03-05T07:36:23;94439.72;;;7.42;46.40
16793;BME280;8513;42.662;23.350;2023-03-05T07:38:48;94430.03;;;7.52;46.48
16793;BME280;8513;42.662;23.350;2023-03-05T07:41:18;94439.84;;;7.68;46.46
16793;BME280;8513;42.662;23.350;2023-03-05T07:43:45;94433.72;;;7.59;47.03
16793;BME280;8513;42.662;23.350;2023-03-05T07:46:14;94435.94;;;7.54;47.62
16793;BME280;8513;42.662;23.350;2023-03-05T07:48:39;94429.66;;;7.65;47.01
16793;BME280;8513;42.662;23.350;2023-03-05T07:51:07;94445.28;;;7.29;47.83
16793;BME280;8513;42.662;23.350;2023-03-05T07:53:33;94428.81;;;7.19;48.52
16793;BME280;8513;42.662;23.350;2023-03-05T07:55:59;94438.38;;;7.38;48.64
16793;BME280;8513;42.662;23.350;2023-03-05T07:58:24;94436.59;;;7.38;48.45
16793;BME280;8513;42.662;23.350;2023-03-05T08:00:50;94446.25;;;7.56;48.15
16793;BME280;8513;42.662;23.350;2023-03-05T08:03:15;94437.44;;;7.74;47.60
16793;BME280;8513;42.662;23.350;2023-03-05T08:05:41;94438.94;;;7.77;47.62
16793;BME280;8513;42.662;23.350;2023-03-05T08:08:07;94439.16;;;7.66;48.08
16793;BME280;8513;42.662;23.350;2023-03-05T08:10:33;94437.75;;;7.89;47.41
16793;BME280;8513;42.662;23.350;2023-03-05T08:12:59;94433.78;;;7.85;47.94
16793;BME280;8513;42.662;23.350;2023-03-05T08:15:25;94433.09;;;8.01;47.18
16793;BME280;8513;42.662;23.350;2023-03-05T08:17:50;94450.91;;;7.98;47.64
16793;BME280;8513;42.662;23.350;2023-03-05T08:20:16;94443.13;;;7.70;48.74
16793;BME280;8513;42.662;23.350;2023-03-05T08:22:43;94449.84;;;7.90;48.60
16793;BME280;8513;42.662;23.350;2023-03-05T08:25:09;94446.50;;;7.98;48.10
16793;BME280;8513;42.662;23.350;2023-03-05T08:27:38;94440.75;;;7.94;47.85
16793;BME280;8513;42.662;23.350;2023-03-05T08:30:04;94430.34;;;8.03;48.04
16793;BME280;8513;42.662;23.350;2023-03-05T08:32:29;94434.78;;;8.28;47.17
16793;BME280;8513;42.662;23.350;2023-03-05T08:34:55;94433.84;;;8.29;47.87
16793;BME280;8513;42.662;23.350;2023-03-05T08:37:24;94435.63;;;8.47;47.13
16793;BME280;8513;42.662;23.350;2023-03-05T08:39:49;94434.00;;;8.46;46.79
16793;BME280;8513;42.662;23.350;2023-03-05T08:42:15;94428.28;;;8.50;46.99
16793;BME280;8513;42.662;23.350;2023-03-05T08:44:41;94441.69;;;8.47;47.30
16793;BME280;8513;42.662;23.350;2023-03-05T08:47:06;94431.53;;;8.08;47.98
16793;BME280;8513;42.662;23.350;2023-03-05T08:49:31;94425.97;;;8.29;47.55
16793;BME280;8513;42.662;23.350;2023-03-05T08:51:57;94423.25;;;8.57;47.55
16793;BME280;8513;42.662;23.350;2023-03-05T08:54:22;94417.56;;;8.88;46.50
16793;BME280;8513;42.662;23.350;2023-03-05T08:56:48;94424.31;;;8.98;45.59
16793;BME280;8513;42.662;23.350;2023-03-05T08:59:14;94417.06;;;8.92;44.30
16793;BME280;8513;42.662;23.350;2023-03-05T09:01:40;94410.78;;;8.77;45.13
16793;BME280;8513;42.662;23.350;2023-03-05T09:04:05;94405.56;;;8.85;44.67
16793;BME280;8513;42.662;23.350;2023-03-05T09:06:31;94407.78;;;8.72;45.19
16793;BME280;8513;42.662;23.350;2023-03-05T09:08:58;94402.91;;;8.77;45.36
16793;BME280;8513;42.662;23.350;2023-03-05T09:11:24;94413.31;;;8.95;44.56
16793;BME280;8513;42.662;23.350;2023-03-05T09:13:49;94405.16;;;9.06;43.51
16793;BME280;8513;42.662;23.350;2023-03-05T09:16:16;94398.63;;;8.50;44.64
16793;BME280;8513;42.662;23.350;2023-03-05T09:18:42;94402.78;;;8.87;43.59
16793;BME280;8513;42.662;23.350;2023-03-05T09:21:10;94402.41;;;8.81;42.48
16793;BME280;8513;42.662;23.350;2023-03-05T09:23:36;94391.63;;;8.50;43.90
16793;BME280;8513;42.662;23.350;2023-03-05T09:26:04;94410.16;;;8.83;43.33
16793;BME280;8513;42.662;23.350;2023-03-05T09:28:30;94387.16;;;9.11;42.23
16793;BME280;8513;42.662;23.350;2023-03-05T09:30:55;94396.44;;;8.97;42.17
16793;BME280;8513;42.662;23.350;2023-03-05T09:33:20;94384.50;;;9.03;42.27
16793;BME280;8513;42.662;23.350;2023-03-05T09:35:46;94382.09;;;9.18;41.59
16793;BME280;8513;42.662;23.350;2023-03-05T09:38:13;94380.34;;;9.35;41.81
16793;BME280;8513;42.662;23.350;2023-03-05T09:40:52;94372.84;;;9.48;40.58
16793;BME280;8513;42.662;23.350;2023-03-05T09:43:37;94373.06;;;9.79;40.35
16793;BME280;8513;42.662;23.350;2023-03-05T09:46:27;94365.03;;;9.97;39.17
16793;BME280;8513;42.662;23.350;2023-03-05T09:51:33;94363.00;;;9.42;39.48
16793;BME280;8513;42.662;23.350;2023-03-05T09:54:04;94354.47;;;9.56;39.42
16793;BME280;8513;42.662;23.350;2023-03-05T09:56:35;94358.31;;;9.94;38.97
16793;BME280;8513;42.662;23.350;2023-03-05T10:01:39;94346.94;;;9.78;37.90
16793;BME280;8513;42.662;23.350;2023-03-05T10:09:39;94344.00;;;10.22;37.35
16793;BME280;8513;42.662;23.350;2023-03-05T10:12:22;94342.81;;;10.57;35.88
16793;BME280;8513;42.662;23.350;2023-03-05T10:14:52;94341.06;;;10.33;36.19
16793;BME280;8513;42.662;23.350;2023-03-05T10:22:30;94324.63;;;10.23;37.21
16793;BME280;8513;42.662;23.350;2023-03-05T10:25:16;94338.25;;;10.51;36.57
16793;BME280;8513;42.662;23.350;2023-03-05T10:27:49;94316.31;;;10.75;36.63
16793;BME280;8513;42.662;23.350;2023-03-05T10:33:24;94307.09;;;10.79;36.32
16793;BME280;8513;42.662;23.350;2023-03-05T10:46:17;94286.16;;;10.94;35.46
16793;BME280;8513;42.662;23.350;2023-03-05T10:48:51;94295.56;;;11.19;34.35
16793;BME280;8513;42.662;23.350;2023-03-05T10:51:35;94294.34;;;10.99;33.86
16793;BME280;8513;42.662;23.350;2023-03-05T10:54:14;94269.25;;;10.88;34.22
16793;BME280;8513;42.662;23.350;2023-03-05T10:56:42;94271.13;;;11.34;33.52
16793;BME280;8513;42.662;23.350;2023-03-05T10:59:08;94273.25;;;10.76;34.26
16793;BME280;8513;42.662;23.350;2023-03-05T11:01:33;94263.47;;;11.24;33.91
16793;BME280;8513;42.662;23.350;2023-03-05T11:04:03;94262.94;;;11.29;33.26
16793;BME280;8513;42.662;23.350;2023-03-05T11:08:54;94262.25;;;11.35;33.67
16793;BME280;8513;42.662;23.350;2023-03-05T11:11:21;94256.06;;;10.96;33.89
16793;BME280;8513;42.662;23.350;2023-03-05T11:14:00;94264.78;;;11.20;34.28
16793;BME280;8513;42.662;23.350;2023-03-05T11:16:32;94248.88;;;11.13;34.23
16793;BME280;8513;42.662;23.350;2023-03-05T11:19:15;94240.53;;;11.10;34.27
16793;BME280;8513;42.662;23.350;2023-03-05T11:21:43;94246.25;;;11.13;34.12
16793;BME280;8513;42.662;23.350;2023-03-05T11:24:15;94250.25;;;11.32;34.35
16793;BME280;8513;42.662;23.350;2023-03-05T11:27:00;94248.94;;;11.51;33.83
16793;BME280;8513;42.662;23.350;2023-03-05T11:29:29;94243.41;;;10.92;34.78
16793;BME280;8513;42.662;23.350;2023-03-05T11:31:55;94242.81;;;10.81;34.92
16793;BME280;8513;42.662;23.350;2023-03-05T11:34:25;94230.72;;;10.95;34.24
16793;BME280;8513;42.662;23.350;2023-03-05T11:39:21;94235.69;;;11.44;34.29
16793;BME280;8513;42.662;23.350;2023-03-05T11:41:48;94235.19;;;11.64;33.55
16793;BME280;8513;42.662;23.350;2023-03-05T11:44:24;94227.50;;;11.39;34.25
16793;BME280;8513;42.662;23.350;2023-03-05T11:46:55;94215.97;;;11.78;33.51
16793;BME280;8513;42.662;23.350;2023-03-05T11:49:27;94215.09;;;11.48;34.34
16793;BME280;8513;42.662;23.350;2023-03-05T11:54:30;94202.28;;;11.83;33.76
16793;BME280;8513;42.662;23.350;2023-03-05T11:56:59;94208.72;;;11.80;34.14
16793;BME280;8513;42.662;23.350;2023-03-05T11:59:34;94199.00;;;11.81;33.94
16793;BME280;8513;42.662;23.350;2023-03-05T12:02:15;94196.34;;;12.19;32.52
16793;BME280;8513;42.662;23.350;2023-03-05T12:04:41;94189.72;;;12.38;32.73
16793;BME280;8513;42.662;23.350;2023-03-05T12:07:11;94183.72;;;12.14;33.55
16793;BME280;8513;42.662;23.350;2023-03-05T12:09:42;94179.34;;;12.21;33.61
16793;BME280;8513;42.662;23.350;2023-03-05T12:17:36;94164.94;;;12.68;31.29
16793;BME280;8513;42.662;23.350;2023-03-05T12:20:16;94170.94;;;12.98;31.07
16793;BME280;8513;42.662;23.350;2023-03-05T12:22:43;94157.94;;;12.97;30.72
16793;BME280;8513;42.662;23.350;2023-03-05T12:25:31;94166.59;;;13.12;30.17
16793;BME280;8513;42.662;23.350;2023-03-05T12:27:58;94168.19;;;13.50;30.12
16793;BME280;8513;42.662;23.350;2023-03-05T12:32:59;94155.81;;;14.06;30.14
16793;BME280;8513;42.662;23.350;2023-03-05T12:35:36;94151.44;;;13.92;30.34
16793;BME280;8513;42.662;23.350;2023-03-05T12:38:08;94151.66;;;14.60;29.67
16793;BME280;8513;42.662;23.350;2023-03-05T12:40:38;94148.84;;;15.70;27.30
16793;BME280;8513;42.662;23.350;2023-03-05T12:43:05;94127.47;;;17.01;25.94
16793;BME280;8513;42.662;23.350;2023-03-05T12:45:50;94136.56;;;16.67;25.71
16793;BME280;8513;42.662;23.350;2023-03-05T12:53:14;94137.91;;;18.28;23.58
16793;BME280;8513;42.662;23.350;2023-03-05T12:58:42;94130.53;;;18.67;22.96
16793;BME280;8513;42.662;23.350;2023-03-05T13:01:41;94123.00;;;20.32;20.87
16793;BME280;8513;42.662;23.350;2023-03-05T13:04:16;94109.28;;;18.97;22.13
16793;BME280;8513;42.662;23.350;2023-03-05T13:06:45;94119.50;;;18.82;22.49
16793;BME280;8513;42.662;23.350;2023-03-05T13:09:25;94120.81;;;17.99;23.63
16793;BME280;8513;42.662;23.350;2023-03-05T13:11:53;94119.69;;;17.31;24.55
16793;BME280;8513;42.662;23.350;2023-03-05T13:14:34;94122.91;;;16.05;25.41
16793;BME280;8513;42.662;23.350;2023-03-05T13:17:00;94117.34;;;14.87;27.41
16793;BME280;8513;42.662;23.350;2023-03-05T13:19:26;94120.16;;;14.30;28.39
16793;BME280;8513;42.662;23.350;2023-03-05T13:22:01;94119.75;;;13.36;29.85
16793;BME280;8513;42.662;23.350;2023-03-05T13:24:28;94117.97;;;13.21;30.54
16793;BME280;8513;42.662;23.350;2023-03-05T13:26:54;94114.19;;;13.09;30.71
16793;BME280;8513;42.662;23.350;2023-03-05T13:29:22;94114.97;;;12.82;30.96
16793;BME280;8513;42.662;23.350;2023-03-05T13:34:23;94116.78;;;12.81;31.06
16793;BME280;8513;42.662;23.350;2023-03-05T13:36:56;94111.19;;;12.91;31.06
16793;BME280;8513;42.662;23.350;2023-03-05T13:39:29;94116.69;;;12.74;31.01
16793;BME280;8513;42.662;23.350;2023-03-05T13:44:42;94120.72;;;12.70;31.48
16793;BME280;8513;42.662;23.350;2023-03-05T13:47:17;94117.41;;;12.47;31.65
16793;BME280;8513;42.662;23.350;2023-03-05T13:49:43;94117.44;;;12.32;31.86
16793;BME280;8513;42.662;23.350;2023-03-05T13:52:10;94118.00;;;12.64;31.45
16793;BME280;8513;42.662;23.350;2023-03-05T13:54:35;94115.00;;;12.67;31.04
16793;BME280;8513;42.662;23.350;2023-03-05T13:57:04;94114.13;;;12.60;31.27
16793;BME280;8513;42.662;23.350;2023-03-05T13:59:32;94121.84;;;12.83;30.80
16793;BME280;8513;42.662;23.350;2023-03-05T14:02:18;94113.47;;;12.72;30.96
16793;BME280;8513;42.662;23.350;2023-03-05T14:04:45;94109.91;;;12.65;31.00
16793;BME280;8513;42.662;23.350;2023-03-05T14:07:32;94115.38;;;12.64;31.38
16793;BME280;8513;42.662;23.350;2023-03-05T14:10:02;94110.19;;;12.70;30.90
16793;BME280;8513;42.662;23.350;2023-03-05T14:12:40;94113.09;;;12.61;31.75